sensor_id;sensor_type;location;lat;lon;timestamp;P1;P2;P0
66336;PMS1003;53139;45.576;5.304;2022-11-23T00:01:22;20.33;20.00;14.67
66336;PMS1003;53139;45.576;5.304;2022-11-23T00:04:27;23.75;17.50;12.25
66336;PMS1003;53139;45.576;5.304;2022-11-23T00:07:27;20.00;17.00;13.25
66336;PMS1003;53139;45.576;5.304;2022-11-23T00:10:28;21.00;17.00;11.00
66336;PMS1003;53139;45.576;5.304;2022-11-23T00:13:28;23.00;18.25;13.50
66336;PMS1003;53139;45.576;5.304;2022-11-23T00:16:29;16.00;13.33;11.00
66336;PMS1003;53139;45.576;5.304;2022-11-23T00:19:30;12.25;11.25;7.75
66336;PMS1003;53139;45.576;5.304;2022-11-23T00:22:30;13.00;12.25;9.50
66336;PMS1003;53139;45.576;5.304;2022-11-23T00:25:31;12.50;10.00;7.00
66336;PMS1003;53139;45.576;5.304;2022-11-23T00:28:31;9.75;7.75;5.00
66336;PMS1003;53139;45.576;5.304;2022-11-23T00:31:37;15.00;10.00;7.75
66336;PMS1003;53139;45.576;5.304;2022-11-23T00:34:38;9.33;7.33;5.00
66336;PMS1003;53139;45.576;5.304;2022-11-23T00:37:39;15.75;11.75;8.00
66336;PMS1003;53139;45.576;5.304;2022-11-23T00:40:42;11.00;8.00;6.50
66336;PMS1003;53139;45.576;5.304;2022-11-23T00:43:42;11.75;8.00;7.00
66336;PMS1003;53139;45.576;5.304;2022-11-23T00:46:43;7.50;6.00;4.50
66336;PMS1003;53139;45.576;5.304;2022-11-23T00:49:43;24.33;19.67;13.67
66336;PMS1003;53139;45.576;5.304;2022-11-23T00:52:44;10.00;8.00;7.00
66336;PMS1003;53139;45.576;5.304;2022-11-23T00:55:51;15.25;11.50;7.25
66336;PMS1003;53139;45.576;5.304;2022-11-23T00:58:52;6.00;4.25;4.00
66336;PMS1003;53139;45.576;5.304;2022-11-23T01:01:53;8.50;6.00;5.00
66336;PMS1003;53139;45.576;5.304;2022-11-23T01:04:54;16.75;8.00;5.00
66336;PMS1003;53139;45.576;5.304;2022-11-23T01:07:56;10.25;10.00;7.00
66336;PMS1003;53139;45.576;5.304;2022-11-23T01:10:58;13.75;12.50;10.00
66336;PMS1003;53139;45.576;5.304;2022-11-23T01:14:03;21.50;13.25;9.00
66336;PMS1003;53139;45.576;5.304;2022-11-23T01:17:04;16.50;14.00;11.00
66336;PMS1003;53139;45.576;5.304;2022-11-23T01:20:05;17.00;14.50;12.00
66336;PMS1003;53139;45.576;5.304;2022-11-23T01:23:06;18.75;10.25;7.00
66336;PMS1003;53139;45.576;5.304;2022-11-23T01:26:07;20.00;13.50;10.50
66336;PMS1003;53139;45.576;5.304;2022-11-23T01:29:09;30.00;20.50;14.00
66336;PMS1003;53139;45.576;5.304;2022-11-23T01:32:11;19.25;11.25;10.25
66336;PMS1003;53139;45.576;5.304;2022-11-23T01:35:11;11.00;10.00;7.00
66336;PMS1003;53139;45.576;5.304;2022-11-23T01:38:11;10.25;6.50;4.00
66336;PMS1003;53139;45.576;5.304;2022-11-23T01:41:16;10.00;8.75;7.00
66336;PMS1003;53139;45.576;5.304;2022-11-23T01:44:30;11.25;10.00;6.50
66336;PMS1003;53139;45.576;5.304;2022-11-23T01:47:33;10.50;10.50;8.00
66336;PMS1003;53139;45.576;5.304;2022-11-23T01:50:43;9.50;7.00;4.75
66336;PMS1003;53139;45.576;5.304;2022-11-23T01:53:51;6.00;4.75;3.00
66336;PMS1003;53139;45.576;5.304;2022-11-23T01:56:56;7.00;4.50;4.00
66336;PMS1003;53139;45.576;5.304;2022-11-23T02:00:00;5.00;4.25;2.50
66336;PMS1003;53139;45.576;5.304;2022-11-23T02:03:03;6.00;6.00;4.25
66336;PMS1003;53139;45.576;5.304;2022-11-23T02:06:15;8.25;7.25;4.25
66336;PMS1003;53139;45.576;5.304;2022-11-23T02:09:20;13.75;10.00;8.00
66336;PMS1003;53139;45.576;5.304;2022-11-23T02:12:22;7.00;6.50;4.50
66336;PMS1003;53139;45.576;5.304;2022-11-23T02:15:22;9.25;6.50;5.50
66336;PMS1003;53139;45.576;5.304;2022-11-23T02:18:24;8.25;8.25;6.00
66336;PMS1003;53139;45.576;5.304;2022-11-23T02:21:27;9.00;6.25;4.50
66336;PMS1003;53139;45.576;5.304;2022-11-23T02:24:29;8.00;4.75;4.00
66336;PMS1003;53139;45.576;5.304;2022-11-23T02:27:34;7.75;5.00;4.00
66336;PMS1003;53139;45.576;5.304;2022-11-23T02:30:37;11.00;11.00;7.00
66336;PMS1003;53139;45.576;5.304;2022-11-23T02:33:39;8.75;6.75;6.00
66336;PMS1003;53139;45.576;5.304;2022-11-23T02:36:46;8.50;6.00;6.00
66336;PMS1003;53139;45.576;5.304;2022-11-23T02:39:50;9.00;9.00;6.50
66336;PMS1003;53139;45.576;5.304;2022-11-23T02:42:52;8.75;8.75;7.00
66336;PMS1003;53139;45.576;5.304;2022-11-23T02:45:56;7.25;7.00;5.00
66336;PMS1003;53139;45.576;5.304;2022-11-23T02:49:00;17.50;12.25;8.50
66336;PMS1003;53139;45.576;5.304;2022-11-23T02:52:00;9.25;8.75;7.75
66336;PMS1003;53139;45.576;5.304;2022-11-23T02:55:01;7.00;6.50;5.00
66336;PMS1003;53139;45.576;5.304;2022-11-23T02:58:02;7.50;5.00;4.00
66336;PMS1003;53139;45.576;5.304;2022-11-23T03:01:03;11.00;7.00;4.00
66336;PMS1003;53139;45.576;5.304;2022-11-23T03:04:04;9.25;6.00;4.50
66336;PMS1003;53139;45.576;5.304;2022-11-23T03:07:05;7.25;5.00;4.00
66336;PMS1003;53139;45.576;5.304;2022-11-23T03:10:05;5.50;4.00;3.50
66336;PMS1003;53139;45.576;5.304;2022-11-23T03:13:11;5.50;5.00;4.25
66336;PMS1003;53139;45.576;5.304;2022-11-23T05:29:52;6.50;5.00;4.00
66336;PMS1003;53139;45.576;5.304;2022-11-23T05:32:52;7.00;4.75;4.00
66336;PMS1003;53139;45.576;5.304;2022-11-23T05:35:52;6.75;6.50;4.00
66336;PMS1003;53139;45.576;5.304;2022-11-23T05:38:53;5.00;5.00;4.50
66336;PMS1003;53139;45.576;5.304;2022-11-23T05:41:53;10.33;4.00;2.00
66336;PMS1003;53139;45.576;5.304;2022-11-23T05:45:18;6.00;4.00;4.00
66336;PMS1003;53139;45.576;5.304;2022-11-23T05:48:19;7.00;4.50;4.00
66336;PMS1003;53139;45.576;5.304;2022-11-23T05:51:19;10.33;6.00;5.00
66336;PMS1003;53139;45.576;5.304;2022-11-23T05:54:20;5.00;4.00;2.00
66336;PMS1003;53139;45.576;5.304;2022-11-23T05:57:20;6.25;5.00;4.00
66336;PMS1003;53139;45.576;5.304;2022-11-23T06:00:21;8.75;6.75;5.00
66336;PMS1003;53139;45.576;5.304;2022-11-23T06:03:21;10.50;4.25;4.00
66336;PMS1003;53139;45.576;5.304;2022-11-23T06:06:22;7.75;5.25;4.50
66336;PMS1003;53139;45.576;5.304;2022-11-23T06:09:22;8.00;6.25;3.50
66336;PMS1003;53139;45.576;5.304;2022-11-23T06:12:23;12.50;7.50;4.00
66336;PMS1003;53139;45.576;5.304;2022-11-23T06:15:23;9.00;7.75;6.25
66336;PMS1003;53139;45.576;5.304;2022-11-23T06:18:23;10.00;8.67;6.67
66336;PMS1003;53139;45.576;5.304;2022-11-23T06:21:24;10.25;8.00;6.25
66336;PMS1003;53139;45.576;5.304;2022-11-23T06:24:24;7.00;6.25;4.75
66336;PMS1003;53139;45.576;5.304;2022-11-23T06:27:25;12.00;8.00;6.00
66336;PMS1003;53139;45.576;5.304;2022-11-23T06:30:26;12.75;6.00;4.75
66336;PMS1003;53139;45.576;5.304;2022-11-23T06:33:28;17.00;11.00;6.25
66336;PMS1003;53139;45.576;5.304;2022-11-23T06:36:28;10.00;9.00;7.25
66336;PMS1003;53139;45.576;5.304;2022-11-23T06:39:28;13.50;9.00;6.75
66336;PMS1003;53139;45.576;5.304;2022-11-23T06:42:29;11.00;8.50;5.75
66336;PMS1003;53139;45.576;5.304;2022-11-23T06:45:29;15.75;11.00;8.00
66336;PMS1003;53139;45.576;5.304;2022-11-23T06:48:30;11.00;9.75;6.00
66336;PMS1003;53139;45.576;5.304;2022-11-23T06:51:30;12.00;9.00;6.00
66336;PMS1003;53139;45.576;5.304;2022-11-23T06:54:31;11.00;8.00;5.00
66336;PMS1003;53139;45.576;5.304;2022-11-23T06:57:31;12.25;8.50;5.25
66336;PMS1003;53139;45.576;5.304;2022-11-23T07:00:32;12.25;11.00;6.25
66336;PMS1003;53139;45.576;5.304;2022-11-23T07:03:32;18.25;11.75;7.50
66336;PMS1003;53139;45.576;5.304;2022-11-23T07:06:34;13.50;12.00;8.50
66336;PMS1003;53139;45.576;5.304;2022-11-23T07:09:39;11.75;8.25;7.00
66336;PMS1003;53139;45.576;5.304;2022-11-23T07:12:39;15.33;12.33;8.33
66336;PMS1003;53139;45.576;5.304;2022-11-23T07:15:40;4.50;4.50;4.25
66336;PMS1003;53139;45.576;5.304;2022-11-23T07:18:41;11.00;11.00;8.00
66336;PMS1003;53139;45.576;5.304;2022-11-23T07:21:41;8.33;8.33;6.33
66336;PMS1003;53139;45.576;5.304;2022-11-23T07:24:41;11.67;8.00;6.00
66336;PMS1003;53139;45.576;5.304;2022-11-23T07:27:42;14.50;13.25;10.00
66336;PMS1003;53139;45.576;5.304;2022-11-23T07:30:43;13.00;10.00;8.00
66336;PMS1003;53139;45.576;5.304;2022-11-23T07:33:44;12.75;12.00;8.75
66336;PMS1003;53139;45.576;5.304;2022-11-23T07:36:45;15.25;11.75;6.00
66336;PMS1003;53139;45.576;5.304;2022-11-23T07:39:45;8.25;7.00;5.50
66336;PMS1003;53139;45.576;5.304;2022-11-23T07:42:46;6.50;5.25;4.25
66336;PMS1003;53139;45.576;5.304;2022-11-23T07:45:46;9.00;9.00;6.00
66336;PMS1003;53139;45.576;5.304;2022-11-23T07:48:46;13.00;12.67;6.67
66336;PMS1003;53139;45.576;5.304;2022-11-23T07:51:47;10.00;9.00;6.00
66336;PMS1003;53139;45.576;5.304;2022-11-23T07:54:47;10.25;8.00;6.00
66336;PMS1003;53139;45.576;5.304;2022-11-23T07:57:51;10.00;7.25;5.25
66336;PMS1003;53139;45.576;5.304;2022-11-23T08:00:53;15.75;10.25;6.50
66336;PMS1003;53139;45.576;5.304;2022-11-23T08:03:53;15.00;12.75;9.00
66336;PMS1003;53139;45.576;5.304;2022-11-23T08:06:54;10.00;10.00;8.67
66336;PMS1003;53139;45.576;5.304;2022-11-23T08:09:54;12.25;9.00;7.00
66336;PMS1003;53139;45.576;5.304;2022-11-23T08:12:58;13.00;12.00;9.67
66336;PMS1003;53139;45.576;5.304;2022-11-23T08:16:00;50.75;43.25;29.50
66336;PMS1003;53139;45.576;5.304;2022-11-23T08:19:00;28.75;26.75;20.75
66336;PMS1003;53139;45.576;5.304;2022-11-23T08:22:01;48.00;39.67;26.33
66336;PMS1003;53139;45.576;5.304;2022-11-23T08:25:01;58.00;45.00;27.00
66336;PMS1003;53139;45.576;5.304;2022-11-23T08:28:02;82.75;63.00;40.25
66336;PMS1003;53139;45.576;5.304;2022-11-23T08:31:07;63.50;45.00;29.50
66336;PMS1003;53139;45.576;5.304;2022-11-23T08:34:09;24.50;19.25;11.00
66336;PMS1003;53139;45.576;5.304;2022-11-23T08:37:09;115.50;95.00;58.50
66336;PMS1003;53139;45.576;5.304;2022-11-23T08:40:10;95.33;71.67;43.67
66336;PMS1003;53139;45.576;5.304;2022-11-23T08:43:11;96.50;69.25;49.50
66336;PMS1003;53139;45.576;5.304;2022-11-23T08:46:11;71.67;53.33;35.67
66336;PMS1003;53139;45.576;5.304;2022-11-23T08:49:12;61.50;47.25;30.00
66336;PMS1003;53139;45.576;5.304;2022-11-23T08:52:12;54.00;43.67;28.33
66336;PMS1003;53139;45.576;5.304;2022-11-23T08:55:13;15.25;10.00;9.00
66336;PMS1003;53139;45.576;5.304;2022-11-23T08:58:13;64.50;49.75;35.75
66336;PMS1003;53139;45.576;5.304;2022-11-23T09:01:14;142.33;119.00;70.67
66336;PMS1003;53139;45.576;5.304;2022-11-23T09:04:16;52.00;42.25;26.75
66336;PMS1003;53139;45.576;5.304;2022-11-23T09:07:17;15.75;14.50;7.00
66336;PMS1003;53139;45.576;5.304;2022-11-23T09:10:17;21.75;16.25;13.25
66336;PMS1003;53139;45.576;5.304;2022-11-23T09:13:18;13.25;9.75;6.00
66336;PMS1003;53139;45.576;5.304;2022-11-23T09:16:18;12.75;10.00;7.00
66336;PMS1003;53139;45.576;5.304;2022-11-23T09:19:19;26.75;25.25;19.00
66336;PMS1003;53139;45.576;5.304;2022-11-23T09:22:21;37.00;31.25;20.50
66336;PMS1003;53139;45.576;5.304;2022-11-23T09:25:21;32.75;27.00;19.75
66336;PMS1003;53139;45.576;5.304;2022-11-23T09:28:23;47.75;37.75;25.00
66336;PMS1003;53139;45.576;5.304;2022-11-23T09:31:23;24.25;18.75;13.75
66336;PMS1003;53139;45.576;5.304;2022-11-23T09:34:27;11.75;9.50;8.25
66336;PMS1003;53139;45.576;5.304;2022-11-23T09:37:28;13.00;12.00;7.50
66336;PMS1003;53139;45.576;5.304;2022-11-23T09:40:38;26.00;18.75;13.75
66336;PMS1003;53139;45.576;5.304;2022-11-23T09:43:51;25.00;20.00;14.50
66336;PMS1003;53139;45.576;5.304;2022-11-23T09:47:05;15.75;13.25;8.75
66336;PMS1003;53139;45.576;5.304;2022-11-23T09:57:02;18.50;12.00;9.00
66336;PMS1003;53139;45.576;5.304;2022-11-23T10:00:06;12.50;12.50;9.00
66336;PMS1003;53139;45.576;5.304;2022-11-23T10:03:16;13.00;11.00;7.75
66336;PMS1003;53139;45.576;5.304;2022-11-23T10:09:28;14.75;12.50;10.75
66336;PMS1003;53139;45.576;5.304;2022-11-23T10:12:50;6.00;6.00;5.00
66336;PMS1003;53139;45.576;5.304;2022-11-23T10:19:36;6.00;6.00;6.00
66336;PMS1003;53139;45.576;5.304;2022-11-23T10:26:37;7.75;7.00;6.00
66336;PMS1003;53139;45.576;5.304;2022-11-23T10:29:40;7.75;6.25;4.00
66336;PMS1003;53139;45.576;5.304;2022-11-23T10:33:01;6.00;5.00;4.00
66336;PMS1003;53139;45.576;5.304;2022-11-23T10:36:10;40.50;37.75;27.00
66336;PMS1003;53139;45.576;5.304;2022-11-23T10:39:17;14.25;12.75;9.50
66336;PMS1003;53139;45.576;5.304;2022-11-23T10:45:37;9.75;9.75;8.00
66336;PMS1003;53139;45.576;5.304;2022-11-23T10:48:37;4.00;3.75;3.00
66336;PMS1003;53139;45.576;5.304;2022-11-23T10:51:38;12.50;10.00;8.00
66336;PMS1003;53139;45.576;5.304;2022-11-23T10:54:50;15.50;12.75;9.50
66336;PMS1003;53139;45.576;5.304;2022-11-23T10:57:55;5.00;3.00;2.50
66336;PMS1003;53139;45.576;5.304;2022-11-23T11:01:00;4.00;4.00;3.75
66336;PMS1003;53139;45.576;5.304;2022-11-23T11:04:03;18.50;13.50;10.50
66336;PMS1003;53139;45.576;5.304;2022-11-23T11:11:07;6.75;6.75;4.50
66336;PMS1003;53139;45.576;5.304;2022-11-23T11:14:21;90.00;78.00;48.25
66336;PMS1003;53139;45.576;5.304;2022-11-23T11:17:26;17.50;14.00;11.00
66336;PMS1003;53139;45.576;5.304;2022-11-23T11:23:33;47.25;36.50;26.50
66336;PMS1003;53139;45.576;5.304;2022-11-23T11:26:38;5.00;4.00;3.00
66336;PMS1003;53139;45.576;5.304;2022-11-23T11:29:56;37.25;32.75;23.25
66336;PMS1003;53139;45.576;5.304;2022-11-23T11:36:02;56.00;45.75;33.00
66336;PMS1003;53139;45.576;5.304;2022-11-23T11:39:07;16.00;15.50;12.25
66336;PMS1003;53139;45.576;5.304;2022-11-23T11:42:23;2.25;2.25;1.75
66336;PMS1003;53139;45.576;5.304;2022-11-23T11:45:32;3.00;2.50;2.00
66336;PMS1003;53139;45.576;5.304;2022-11-23T11:48:38;3.00;1.75;1.00
66336;PMS1003;53139;45.576;5.304;2022-11-23T11:52:04;2.50;2.25;1.75
66336;PMS1003;53139;45.576;5.304;2022-11-23T11:58:21;2.00;2.00;2.00
66336;PMS1003;53139;45.576;5.304;2022-11-23T12:04:34;5.50;2.50;2.00
66336;PMS1003;53139;45.576;5.304;2022-11-23T12:07:54;1.00;0.00;0.00
66336;PMS1003;53139;45.576;5.304;2022-11-23T12:11:14;1.50;1.00;1.00
66336;PMS1003;53139;45.576;5.304;2022-11-23T12:14:14;11.00;11.00;10.00
66336;PMS1003;53139;45.576;5.304;2022-11-23T12:23:47;12.25;9.25;8.25
66336;PMS1003;53139;45.576;5.304;2022-11-23T12:26:55;0.25;0.25;0.00
66336;PMS1003;53139;45.576;5.304;2022-11-23T12:36:39;1.25;1.25;1.00
66336;PMS1003;53139;45.576;5.304;2022-11-23T12:42:49;2.75;2.00;2.00
66336;PMS1003;53139;45.576;5.304;2022-11-23T12:49:23;1.00;1.00;1.00
66336;PMS1003;53139;45.576;5.304;2022-11-23T12:59:07;16.00;14.50;12.00
66336;PMS1003;53139;45.576;5.304;2022-11-23T13:02:32;3.00;3.00;2.00
66336;PMS1003;53139;45.576;5.304;2022-11-23T13:09:25;3.00;2.00;2.00
66336;PMS1003;53139;45.576;5.304;2022-11-23T13:16:20;3.00;2.00;1.50
66336;PMS1003;53139;45.576;5.304;2022-11-23T13:23:12;2.75;1.00;1.00
66336;PMS1003;53139;45.576;5.304;2022-11-23T13:26:14;2.00;1.00;1.00
66336;PMS1003;53139;45.576;5.304;2022-11-23T13:33:36;8.50;3.00;2.00
66336;PMS1003;53139;45.576;5.304;2022-11-23T13:43:02;3.00;1.50;1.00
66336;PMS1003;53139;45.576;5.304;2022-11-23T13:46:22;2.00;2.00;1.00
66336;PMS1003;53139;45.576;5.304;2022-11-23T13:52:52;11.25;9.75;8.75
66336;PMS1003;53139;45.576;5.304;2022-11-23T13:55:53;10.75;7.50;6.25
66336;PMS1003;53139;45.576;5.304;2022-11-23T14:02:25;3.00;3.00;3.00
66336;PMS1003;53139;45.576;5.304;2022-11-23T14:08:51;4.25;3.00;2.00
66336;PMS1003;53139;45.576;5.304;2022-11-23T14:15:11;11.25;10.00;6.75
66336;PMS1003;53139;45.576;5.304;2022-11-23T14:21:54;2.75;2.75;2.00
66336;PMS1003;53139;45.576;5.304;2022-11-23T14:25:05;20.00;15.25;13.75
66336;PMS1003;53139;45.576;5.304;2022-11-23T14:41:38;3.50;2.00;2.00
66336;PMS1003;53139;45.576;5.304;2022-11-23T14:44:41;3.00;2.00;1.00
66336;PMS1003;53139;45.576;5.304;2022-11-23T14:47:42;1.75;1.00;1.00
66336;PMS1003;53139;45.576;5.304;2022-11-23T14:50:43;5.25;5.25;4.75
66336;PMS1003;53139;45.576;5.304;2022-11-23T14:53:55;10.50;9.00;7.75
66336;PMS1003;53139;45.576;5.304;2022-11-23T14:56:59;6.50;6.50;4.75
66336;PMS1003;53139;45.576;5.304;2022-11-23T15:00:02;50.75;41.25;27.75
66336;PMS1003;53139;45.576;5.304;2022-11-23T15:03:07;8.50;7.75;4.25
66336;PMS1003;53139;45.576;5.304;2022-11-23T15:06:14;6.75;4.25;3.75
66336;PMS1003;53139;45.576;5.304;2022-11-23T15:12:42;41.00;30.00;21.75
66336;PMS1003;53139;45.576;5.304;2022-11-23T15:15:44;30.75;28.50;23.25
66336;PMS1003;53139;45.576;5.304;2022-11-23T15:18:46;1.00;1.00;0.75
66336;PMS1003;53139;45.576;5.304;2022-11-23T15:21:47;1.50;1.00;1.00
66336;PMS1003;53139;45.576;5.304;2022-11-23T15:24:48;5.25;4.75;4.00
66336;PMS1003;53139;45.576;5.304;2022-11-23T15:27:49;7.25;7.25;5.25
66336;PMS1003;53139;45.576;5.304;2022-11-23T15:30:49;8.50;7.25;5.25
66336;PMS1003;53139;45.576;5.304;2022-11-23T15:33:51;12.25;10.00;7.75
66336;PMS1003;53139;45.576;5.304;2022-11-23T15:36:54;12.50;9.75;7.50
66336;PMS1003;53139;45.576;5.304;2022-11-23T15:39:56;2.00;2.00;0.00
66336;PMS1003;53139;45.576;5.304;2022-11-23T15:42:57;14.50;13.50;10.00
66336;PMS1003;53139;45.576;5.304;2022-11-23T15:46:02;9.00;8.00;6.75
66336;PMS1003;53139;45.576;5.304;2022-11-23T15:49:05;22.50;17.25;13.75
66336;PMS1003;53139;45.576;5.304;2022-11-23T15:52:06;8.00;4.00;4.00
66336;PMS1003;53139;45.576;5.304;2022-11-23T15:55:12;8.50;6.75;6.00
66336;PMS1003;53139;45.576;5.304;2022-11-23T15:58:17;2.25;1.75;1.25
66336;PMS1003;53139;45.576;5.304;2022-11-23T16:01:19;7.25;7.00;5.00
66336;PMS1003;53139;45.576;5.304;2022-11-23T16:07:26;10.50;7.75;6.00
66336;PMS1003;53139;45.576;5.304;2022-11-23T16:10:28;9.00;7.25;6.25
66336;PMS1003;53139;45.576;5.304;2022-11-23T16:13:37;33.25;23.75;14.25
66336;PMS1003;53139;45.576;5.304;2022-11-23T16:16:38;3.25;3.00;2.00
66336;PMS1003;53139;45.576;5.304;2022-11-23T16:19:40;3.00;1.50;1.25
66336;PMS1003;53139;45.576;5.304;2022-11-23T16:22:49;10.75;9.00;7.75
66336;PMS1003;53139;45.576;5.304;2022-11-23T16:25:52;7.00;4.25;3.00
66336;PMS1003;53139;45.576;5.304;2022-11-23T16:28:56;1.00;1.00;1.00
66336;PMS1003;53139;45.576;5.304;2022-11-23T16:31:58;4.00;2.00;2.00
66336;PMS1003;53139;45.576;5.304;2022-11-23T16:35:13;2.00;2.00;2.00
66336;PMS1003;53139;45.576;5.304;2022-11-23T16:38:19;7.25;6.00;4.00
66336;PMS1003;53139;45.576;5.304;2022-11-23T16:41:20;9.50;5.50;4.25
66336;PMS1003;53139;45.576;5.304;2022-11-23T16:44:21;5.25;4.00;4.00
66336;PMS1003;53139;45.576;5.304;2022-11-23T16:47:25;10.50;7.50;7.00
66336;PMS1003;53139;45.576;5.304;2022-11-23T16:50:30;14.50;9.75;8.50
66336;PMS1003;53139;45.576;5.304;2022-11-23T16:53:32;13.50;13.00;10.00
66336;PMS1003;53139;45.576;5.304;2022-11-23T16:56:32;14.25;13.00;9.00
66336;PMS1003;53139;45.576;5.304;2022-11-23T16:59:33;23.75;12.50;10.00
66336;PMS1003;53139;45.576;5.304;2022-11-23T17:02:34;12.75;9.75;8.25
66336;PMS1003;53139;45.576;5.304;2022-11-23T17:05:34;12.00;10.00;8.00
66336;PMS1003;53139;45.576;5.304;2022-11-23T17:08:35;11.00;11.00;8.67
66336;PMS1003;53139;45.576;5.304;2022-11-23T17:11:36;12.00;11.00;8.00
66336;PMS1003;53139;45.576;5.304;2022-11-23T17:14:40;15.00;15.00;12.25
66336;PMS1003;53139;45.576;5.304;2022-11-23T17:17:41;18.75;13.75;10.50
66336;PMS1003;53139;45.576;5.304;2022-11-23T17:20:42;19.50;14.50;11.25
66336;PMS1003;53139;45.576;5.304;2022-11-23T17:23:43;26.00;23.50;16.50
66336;PMS1003;53139;45.576;5.304;2022-11-23T17:26:44;26.25;22.50;16.75
66336;PMS1003;53139;45.576;5.304;2022-11-23T17:29:46;23.25;19.50;15.50
66336;PMS1003;53139;45.576;5.304;2022-11-23T17:32:59;30.00;25.00;18.00
66336;PMS1003;53139;45.576;5.304;2022-11-23T17:36:00;21.50;18.50;12.50
66336;PMS1003;53139;45.576;5.304;2022-11-23T17:39:00;27.75;25.25;18.25
66336;PMS1003;53139;45.576;5.304;2022-11-23T17:42:04;15.75;12.75;9.25
66336;PMS1003;53139;45.576;5.304;2022-11-23T17:45:05;20.50;18.25;13.25
66336;PMS1003;53139;45.576;5.304;2022-11-23T17:48:07;22.25;19.25;14.00
66336;PMS1003;53139;45.576;5.304;2022-11-23T17:51:10;39.50;32.75;23.25
66336;PMS1003;53139;45.576;5.304;2022-11-23T17:54:14;67.00;53.25;36.00
66336;PMS1003;53139;45.576;5.304;2022-11-23T17:57:15;48.00;40.33;28.33
66336;PMS1003;53139;45.576;5.304;2022-11-23T18:00:17;21.75;17.50;12.25
66336;PMS1003;53139;45.576;5.304;2022-11-23T18:03:20;28.00;25.50;20.50
66336;PMS1003;53139;45.576;5.304;2022-11-23T18:06:21;20.00;16.25;13.00
66336;PMS1003;53139;45.576;5.304;2022-11-23T18:09:22;29.25;26.75;21.50
66336;PMS1003;53139;45.576;5.304;2022-11-23T18:12:23;27.25;22.50;17.25
66336;PMS1003;53139;45.576;5.304;2022-11-23T18:15:23;26.75;23.00;17.00
66336;PMS1003;53139;45.576;5.304;2022-11-23T18:18:23;20.25;17.50;14.25
66336;PMS1003;53139;45.576;5.304;2022-11-23T18:21:24;73.50;57.75;36.50
66336;PMS1003;53139;45.576;5.304;2022-11-23T18:24:24;76.75;58.75;38.50
66336;PMS1003;53139;45.576;5.304;2022-11-23T18:27:25;63.00;49.00;34.00
66336;PMS1003;53139;45.576;5.304;2022-11-23T18:30:25;30.00;24.25;17.50
66336;PMS1003;53139;45.576;5.304;2022-11-23T18:33:25;18.50;17.50;13.75
66336;PMS1003;53139;45.576;5.304;2022-11-23T18:36:26;22.33;18.67;14.33
66336;PMS1003;53139;45.576;5.304;2022-11-23T18:39:26;82.33;65.33;42.67
66336;PMS1003;53139;45.576;5.304;2022-11-23T18:42:26;20.25;20.25;15.25
66336;PMS1003;53139;45.576;5.304;2022-11-23T18:45:27;22.50;18.50;12.75
66336;PMS1003;53139;45.576;5.304;2022-11-23T18:48:27;26.00;22.67;18.00
66336;PMS1003;53139;45.576;5.304;2022-11-23T18:51:27;28.00;24.33;16.00
66336;PMS1003;53139;45.576;5.304;2022-11-23T18:54:28;23.00;21.00;15.00
66336;PMS1003;53139;45.576;5.304;2022-11-23T18:57:28;27.33;22.00;17.67
66336;PMS1003;53139;45.576;5.304;2022-11-23T19:00:29;56.50;45.75;31.00
66336;PMS1003;53139;45.576;5.304;2022-11-23T19:03:29;102.00;91.75;61.00
66336;PMS1003;53139;45.576;5.304;2022-11-23T19:06:29;22.75;18.75;12.50
66336;PMS1003;53139;45.576;5.304;2022-11-23T19:09:31;74.50;56.75;37.00
66336;PMS1003;53139;45.576;5.304;2022-11-23T19:12:31;16.50;16.25;15.25
66336;PMS1003;53139;45.576;5.304;2022-11-23T19:15:32;23.33;20.67;15.33
66336;PMS1003;53139;45.576;5.304;2022-11-23T19:18:33;21.25;18.00;12.25
66336;PMS1003;53139;45.576;5.304;2022-11-23T19:21:33;27.50;25.50;16.75
66336;PMS1003;53139;45.576;5.304;2022-11-23T19:24:35;26.50;21.50;17.25
66336;PMS1003;53139;45.576;5.304;2022-11-23T19:27:35;35.00;31.75;22.00
66336;PMS1003;53139;45.576;5.304;2022-11-23T19:30:39;28.25;26.00;20.25
66336;PMS1003;53139;45.576;5.304;2022-11-23T19:33:40;33.25;27.75;19.75
66336;PMS1003;53139;45.576;5.304;2022-11-23T19:36:41;27.25;22.75;16.75
66336;PMS1003;53139;45.576;5.304;2022-11-23T19:39:41;28.25;22.00;16.00
66336;PMS1003;53139;45.576;5.304;2022-11-23T19:42:42;20.50;16.75;13.75
66336;PMS1003;53139;45.576;5.304;2022-11-23T19:45:42;25.50;22.50;18.00
66336;PMS1003;53139;45.576;5.304;2022-11-23T19:48:42;21.50;19.50;15.75
66336;PMS1003;53139;45.576;5.304;2022-11-23T19:51:43;26.75;25.00;16.00
66336;PMS1003;53139;45.576;5.304;2022-11-23T19:54:44;30.00;26.50;20.00
66336;PMS1003;53139;45.576;5.304;2022-11-23T19:57:44;38.00;31.67;21.00
66336;PMS1003;53139;45.576;5.304;2022-11-23T20:00:44;41.67;35.67;24.33
66336;PMS1003;53139;45.576;5.304;2022-11-23T20:03:46;35.50;30.50;21.75
66336;PMS1003;53139;45.576;5.304;2022-11-23T20:06:47;28.50;25.50;19.00
66336;PMS1003;53139;45.576;5.304;2022-11-23T20:09:48;25.75;24.50;17.00
66336;PMS1003;53139;45.576;5.304;2022-11-23T20:12:48;23.50;22.00;15.00
66336;PMS1003;53139;45.576;5.304;2022-11-23T20:15:49;28.67;26.67;18.00
66336;PMS1003;53139;45.576;5.304;2022-11-23T20:18:53;26.75;23.75;16.25
66336;PMS1003;53139;45.576;5.304;2022-11-23T20:21:58;34.50;28.50;21.75
66336;PMS1003;53139;45.576;5.304;2022-11-23T20:24:58;55.50;42.75;27.75
66336;PMS1003;53139;45.576;5.304;2022-11-23T20:27:58;22.25;21.00;16.50
66336;PMS1003;53139;45.576;5.304;2022-11-23T20:31:02;25.33;22.00;15.00
66336;PMS1003;53139;45.576;5.304;2022-11-23T20:34:03;30.75;24.50;17.75
66336;PMS1003;53139;45.576;5.304;2022-11-23T20:37:04;28.75;24.75;20.75
66336;PMS1003;53139;45.576;5.304;2022-11-23T20:40:05;25.00;22.00;17.25
66336;PMS1003;53139;45.576;5.304;2022-11-23T20:43:06;29.75;26.75;20.00
66336;PMS1003;53139;45.576;5.304;2022-11-23T20:46:06;31.67;28.67;20.33
66336;PMS1003;53139;45.576;5.304;2022-11-23T20:49:07;23.75;21.50;16.75
66336;PMS1003;53139;45.576;5.304;2022-11-23T20:52:07;70.50;55.00;32.00
66336;PMS1003;53139;45.576;5.304;2022-11-23T20:55:08;63.00;46.00;29.50
66336;PMS1003;53139;45.576;5.304;2022-11-23T20:58:08;36.25;31.25;22.75
66336;PMS1003;53139;45.576;5.304;2022-11-23T21:01:09;20.50;12.75;6.25
66336;PMS1003;53139;45.576;5.304;2022-11-23T21:04:17;26.25;22.75;15.75
66336;PMS1003;53139;45.576;5.304;2022-11-23T21:07:17;55.00;41.67;27.33
66336;PMS1003;53139;45.576;5.304;2022-11-23T21:10:18;61.33;45.00;28.33
66336;PMS1003;53139;45.576;5.304;2022-11-23T21:13:37;25.75;22.00;15.25
66336;PMS1003;53139;45.576;5.304;2022-11-23T21:16:56;32.00;27.25;20.50
66336;PMS1003;53139;45.576;5.304;2022-11-23T21:19:58;29.75;26.75;18.00
66336;PMS1003;53139;45.576;5.304;2022-11-23T21:22:58;34.50;29.00;21.25
66336;PMS1003;53139;45.576;5.304;2022-11-23T21:26:05;26.25;23.25;15.75
66336;PMS1003;53139;45.576;5.304;2022-11-23T21:29:06;39.50;30.25;20.75
66336;PMS1003;53139;45.576;5.304;2022-11-23T21:32:08;34.75;30.00;22.00
66336;PMS1003;53139;45.576;5.304;2022-11-23T21:35:09;28.50;25.75;18.25
66336;PMS1003;53139;45.576;5.304;2022-11-23T21:38:10;40.00;28.67;20.67
66336;PMS1003;53139;45.576;5.304;2022-11-23T21:41:14;43.75;37.00;24.50